createdAt,value
2023-02-19T00:01:22.172Z,52.54
2023-02-19T00:03:48.581Z,50.26
2023-02-19T00:06:14.953Z,50.79
2023-02-19T00:08:41.301Z,51.19
2023-02-19T00:11:07.785Z,51.15
2023-02-19T00:13:34.257Z,53.60
2023-02-19T00:16:00.682Z,51.26
2023-02-19T00:18:27.125Z,52.87
2023-02-19T00:20:53.493Z,54.14
2023-02-19T00:23:19.826Z,51.77
2023-02-19T00:25:46.213Z,51.89
2023-02-19T00:28:12.609Z,51.54
2023-02-19T00:30:38.958Z,52.36
2023-02-19T00:33:05.345Z,53.34
2023-02-19T00:35:31.694Z,50.20
2023-02-19T00:37:58.088Z,52.32
2023-02-19T00:40:24.438Z,49.91
2023-02-19T00:42:50.820Z,49.20
2023-02-19T00:45:17.220Z,50.50
2023-02-19T00:47:43.571Z,53.04
2023-02-19T00:50:09.950Z,52.17
2023-02-19T00:52:36.306Z,51.01
2023-02-19T00:55:02.684Z,52.40
2023-02-19T00:57:29.042Z,51.64
2023-02-19T00:59:55.423Z,53.85
2023-02-19T01:02:21.788Z,52.31
2023-02-19T01:04:48.152Z,51.91
2023-02-19T01:07:14.554Z,50.55
2023-02-19T01:09:40.946Z,51.30
2023-02-19T01:12:07.351Z,52.54
2023-02-19T01:14:33.746Z,51.29
2023-02-19T01:17:00.106Z,50.65
2023-02-19T01:19:26.455Z,51.10
2023-02-19T01:21:52.832Z,50.42
2023-02-19T01:24:19.175Z,50.46
2023-02-19T01:26:45.511Z,51.27
2023-02-19T01:29:11.860Z,53.63
2023-02-19T01:31:38.318Z,51.81
2023-02-19T01:34:04.782Z,51.26
2023-02-19T01:36:31.156Z,50.85
2023-02-19T01:38:57.507Z,52.22
2023-02-19T01:41:23.900Z,51.55
2023-02-19T01:43:50.277Z,53.80
2023-02-19T01:46:16.692Z,53.31
2023-02-19T01:48:43.101Z,52.23
2023-02-19T01:51:09.840Z,51.61
2023-02-19T01:53:36.341Z,54.57
2023-02-19T01:56:02.727Z,53.62
2023-02-19T01:58:29.128Z,54.10
2023-02-19T02:00:55.581Z,53.82
2023-02-19T02:03:21.964Z,54.09
2023-02-19T02:05:48.307Z,55.06
2023-02-19T02:08:16.381Z,53.38
2023-02-19T02:10:42.862Z,53.64
2023-02-19T02:13:09.261Z,55.36
2023-02-19T02:15:35.617Z,56.00
2023-02-19T02:18:02.032Z,52.98
2023-02-19T02:20:28.399Z,52.43
2023-02-19T02:22:54.791Z,53.47
2023-02-19T02:25:21.143Z,53.28
2023-02-19T02:27:47.516Z,53.55
2023-02-19T02:30:13.927Z,53.74
2023-02-19T02:32:40.303Z,54.32
2023-02-19T02:35:06.646Z,53.65
2023-02-19T02:37:33.025Z,54.57
2023-02-19T02:39:59.407Z,53.30
2023-02-19T02:42:25.763Z,54.87
2023-02-19T02:44:52.143Z,53.64
2023-02-19T02:47:18.503Z,52.25
2023-02-19T02:49:44.843Z,53.32
2023-02-19T02:52:11.219Z,53.31
2023-02-19T02:54:37.581Z,54.68
2023-02-19T02:57:03.959Z,52.69
2023-02-19T02:59:30.369Z,53.99
2023-02-19T03:01:56.739Z,52.75
2023-02-19T03:04:23.142Z,52.48
2023-02-19T03:06:49.493Z,53.34
2023-02-19T03:09:15.843Z,55.39
2023-02-19T03:11:42.192Z,53.43
2023-02-19T03:14:08.549Z,54.38
2023-02-19T03:16:34.986Z,51.83
2023-02-19T03:19:01.389Z,53.60
2023-02-19T03:21:27.779Z,55.09
2023-02-19T03:23:54.150Z,53.58
2023-02-19T03:26:20.552Z,53.54
2023-02-19T03:28:46.949Z,53.48
2023-02-19T03:31:13.581Z,51.21
2023-02-19T03:33:40.059Z,52.68
2023-02-19T03:36:06.444Z,51.03
2023-02-19T03:38:32.902Z,54.76
2023-02-19T03:40:59.291Z,53.63
2023-02-19T03:43:25.649Z,52.86
2023-02-19T03:45:52.025Z,53.07
2023-02-19T03:48:18.452Z,56.19
2023-02-19T03:50:44.849Z,52.38
2023-02-19T03:53:11.251Z,52.37
2023-02-19T03:55:37.632Z,52.85
2023-02-19T03:58:04.014Z,53.92
2023-02-19T04:00:30.415Z,53.66
2023-02-19T04:02:56.756Z,52.88
2023-02-19T04:05:23.142Z,50.67
2023-02-19T04:07:49.558Z,50.86
2023-02-19T04:10:15.943Z,52.87
2023-02-19T04:12:42.341Z,53.91
2023-02-19T04:15:08.703Z,52.64
2023-02-19T04:17:35.085Z,57.66
2023-02-19T04:20:01.480Z,57.51
2023-02-19T04:22:27.908Z,57.51
2023-02-19T04:24:54.259Z,54.48
2023-02-19T04:27:20.671Z,55.51
2023-02-19T04:29:47.068Z,55.70
2023-02-19T04:32:13.457Z,55.23
2023-02-19T04:34:39.809Z,53.69
2023-02-19T04:37:06.185Z,54.28
2023-02-19T04:39:32.533Z,54.48
2023-02-19T04:41:58.932Z,54.41
2023-02-19T04:44:25.288Z,54.70
2023-02-19T04:46:51.665Z,53.27
2023-02-19T04:49:18.085Z,52.58
2023-02-19T04:51:44.500Z,54.24
2023-02-19T04:54:10.858Z,54.33
2023-02-19T04:56:37.237Z,55.53
2023-02-19T04:59:03.620Z,53.60
2023-02-19T05:01:30.031Z,55.94
2023-02-19T05:03:56.438Z,55.15
2023-02-19T05:06:22.787Z,55.62
2023-02-19T05:08:49.173Z,53.72
2023-02-19T05:11:15.535Z,54.04
2023-02-19T05:13:41.943Z,54.00
2023-02-19T05:16:08.401Z,53.30
2023-02-19T05:18:34.826Z,53.35
2023-02-19T05:21:01.196Z,53.10
2023-02-19T05:23:27.575Z,53.58
2023-02-19T05:25:53.926Z,53.36
2023-02-19T05:28:20.263Z,54.77
2023-02-19T05:30:46.701Z,53.54
2023-02-19T05:33:13.216Z,54.75
2023-02-19T05:35:39.560Z,52.81
2023-02-19T05:38:05.907Z,54.01
2023-02-19T05:40:32.271Z,53.76
2023-02-19T05:42:58.607Z,53.27
2023-02-19T05:45:24.985Z,55.16
2023-02-19T05:47:51.324Z,51.82
2023-02-19T05:50:17.703Z,53.34
2023-02-19T05:52:44.049Z,54.44
2023-02-19T05:55:10.442Z,52.80
2023-02-19T05:57:36.936Z,52.92
2023-02-19T06:00:03.305Z,54.09
2023-02-19T06:02:29.703Z,53.72
2023-02-19T06:04:56.105Z,53.89
2023-02-19T06:07:22.449Z,53.72
2023-02-19T06:09:48.796Z,56.96
2023-02-19T06:12:15.154Z,56.12
2023-02-19T06:14:41.512Z,53.79
2023-02-19T06:17:07.863Z,54.81
2023-02-19T06:19:34.204Z,57.52
2023-02-19T06:22:00.543Z,57.08
2023-02-19T06:24:26.940Z,55.34
2023-02-19T06:26:53.286Z,53.53
2023-02-19T06:29:19.663Z,52.01
2023-02-19T06:31:46.115Z,54.56
2023-02-19T06:34:12.587Z,52.75
2023-02-19T06:36:38.964Z,51.73
2023-02-19T06:39:05.358Z,51.95
2023-02-19T06:41:31.779Z,53.19
2023-02-19T06:43:58.146Z,53.26
2023-02-19T06:46:24.574Z,53.79
2023-02-19T06:48:50.986Z,52.49
2023-02-19T06:51:17.339Z,52.01
2023-02-19T06:53:43.712Z,52.99
2023-02-19T06:56:10.051Z,53.10
2023-02-19T06:58:36.389Z,53.59
2023-02-19T07:01:02.765Z,53.50
2023-02-19T07:03:29.144Z,54.42
2023-02-19T07:05:55.524Z,54.79
2023-02-19T07:08:21.905Z,55.37
2023-02-19T07:10:48.255Z,56.36
2023-02-19T07:13:14.600Z,56.12
2023-02-19T07:15:40.990Z,55.40
2023-02-19T07:18:07.366Z,54.18
2023-02-19T07:20:33.713Z,55.06
2023-02-19T07:23:00.105Z,54.72
2023-02-19T07:25:26.506Z,54.24
2023-02-19T07:27:52.856Z,54.45
2023-02-19T07:30:19.206Z,54.29
2023-02-19T07:32:45.593Z,53.70
2023-02-19T07:35:12.008Z,54.54
2023-02-19T07:37:38.410Z,54.27
2023-02-19T07:40:04.794Z,54.57
2023-02-19T07:42:31.192Z,55.49
2023-02-19T07:45:00.240Z,53.86
2023-02-19T07:47:26.920Z,55.55
2023-02-19T07:49:53.276Z,54.80
2023-02-19T07:52:19.622Z,56.04
2023-02-19T07:54:45.984Z,55.23
2023-02-19T07:57:12.394Z,55.29
2023-02-19T07:59:38.776Z,54.27
2023-02-19T08:02:05.135Z,53.64
2023-02-19T08:04:31.517Z,53.38
2023-02-19T08:06:57.906Z,53.21
2023-02-19T08:09:24.319Z,53.25
2023-02-19T08:11:50.655Z,53.57
2023-02-19T08:14:17.031Z,53.21
2023-02-19T08:16:43.617Z,53.67
2023-02-19T08:19:10.000Z,52.90
2023-02-19T08:21:36.378Z,53.15
2023-02-19T08:24:02.760Z,53.93
2023-02-19T08:26:29.113Z,53.38
2023-02-19T08:28:55.460Z,53.89
2023-02-19T08:31:21.923Z,54.15
2023-02-19T08:33:48.336Z,54.23
2023-02-19T08:36:14.719Z,55.14
2023-02-19T08:38:41.071Z,52.79
2023-02-19T08:41:07.508Z,52.67
2023-02-19T08:43:33.886Z,52.72
2023-02-19T08:46:00.286Z,52.42
2023-02-19T08:48:26.647Z,53.03
2023-02-19T08:50:53.017Z,53.21
2023-02-19T08:53:19.359Z,52.99
2023-02-19T08:55:45.770Z,52.59
2023-02-19T08:58:12.154Z,51.93
2023-02-19T09:00:38.498Z,52.37
2023-02-19T09:03:04.830Z,52.63
2023-02-19T09:05:31.219Z,52.38
2023-02-19T09:07:57.569Z,51.91
2023-02-19T09:10:23.954Z,52.69
2023-02-19T09:12:50.368Z,51.75
2023-02-19T09:15:16.743Z,53.51
2023-02-19T09:17:43.138Z,53.39
2023-02-19T09:20:09.509Z,54.22
2023-02-19T09:22:35.885Z,53.54
2023-02-19T09:25:02.269Z,54.34
2023-02-19T09:27:28.618Z,54.30
2023-02-19T09:29:54.966Z,54.50
2023-02-19T09:32:21.513Z,54.54
2023-02-19T09:34:47.901Z,53.15
2023-02-19T09:37:14.239Z,53.77
2023-02-19T09:39:40.617Z,54.53
2023-02-19T09:42:06.968Z,52.78
2023-02-19T09:44:33.358Z,53.22
2023-02-19T09:46:59.698Z,52.33
2023-02-19T09:49:26.158Z,50.75
2023-02-19T09:51:52.548Z,50.79
2023-02-19T09:54:18.894Z,52.34
2023-02-19T09:56:45.265Z,51.57
2023-02-19T09:59:11.867Z,52.84
2023-02-19T10:01:38.292Z,53.05
2023-02-19T10:04:04.659Z,52.32
2023-02-19T10:06:31.048Z,52.16
2023-02-19T10:08:57.444Z,52.26
2023-02-19T10:11:23.852Z,53.98
2023-02-19T10:13:50.207Z,51.87
2023-02-19T10:16:16.603Z,50.92
2023-02-19T10:18:43.057Z,50.06
2023-02-19T10:21:09.785Z,50.33
2023-02-19T10:23:36.251Z,51.62
2023-02-19T10:26:02.595Z,50.75
2023-02-19T10:28:28.983Z,50.67
2023-02-19T10:30:55.372Z,50.24
2023-02-19T10:33:21.760Z,49.68
2023-02-19T10:35:48.144Z,49.80
2023-02-19T10:38:14.537Z,49.92
2023-02-19T10:40:40.890Z,48.80
2023-02-19T10:43:07.259Z,49.35
2023-02-19T10:45:33.673Z,48.95
2023-02-19T10:48:00.027Z,49.25
2023-02-19T10:50:26.404Z,49.16
2023-02-19T10:52:52.785Z,50.08
2023-02-19T10:55:19.134Z,48.84
2023-02-19T10:57:45.488Z,48.87
2023-02-19T11:00:11.870Z,49.54
2023-02-19T11:02:38.217Z,48.85
2023-02-19T11:05:04.582Z,48.85
2023-02-19T11:07:31.219Z,48.61
2023-02-19T11:09:57.626Z,47.92
2023-02-19T11:12:23.986Z,47.91
2023-02-19T11:14:50.328Z,48.66
2023-02-19T11:17:16.701Z,47.78
2023-02-19T11:19:43.111Z,48.69
2023-02-19T11:22:09.466Z,50.29
2023-02-19T11:24:35.803Z,49.71
2023-02-19T11:27:02.204Z,50.77
2023-02-19T11:29:28.628Z,50.86
2023-02-19T11:31:55.161Z,49.07
2023-02-19T11:34:21.557Z,48.38
2023-02-19T11:36:47.887Z,49.24
2023-02-19T11:39:14.274Z,47.86
2023-02-19T11:41:40.652Z,47.63
2023-02-19T11:44:07.011Z,47.66
2023-02-19T11:46:33.411Z,48.18
2023-02-19T11:48:59.791Z,47.87
2023-02-19T11:51:26.178Z,47.60
2023-02-19T11:53:52.518Z,47.91
2023-02-19T11:56:18.893Z,48.72
2023-02-19T11:58:45.285Z,47.80
2023-02-19T12:01:11.993Z,48.34
2023-02-19T12:03:38.488Z,48.86
2023-02-19T12:06:04.831Z,48.21
2023-02-19T12:08:31.181Z,48.11
2023-02-19T12:10:57.570Z,46.13
2023-02-19T12:13:23.919Z,45.82
2023-02-19T12:15:50.283Z,48.46
2023-02-19T12:18:16.662Z,48.24
2023-02-19T12:20:43.041Z,47.77
2023-02-19T12:23:09.437Z,46.02
2023-02-19T12:25:35.834Z,46.30
2023-02-19T12:28:02.205Z,47.29
2023-02-19T12:30:28.699Z,47.58
2023-02-19T12:32:55.143Z,48.13
2023-02-19T12:35:21.500Z,47.92
2023-02-19T12:37:47.880Z,47.82
2023-02-19T12:40:14.269Z,47.13
2023-02-19T12:42:40.663Z,45.65
2023-02-19T12:45:07.004Z,45.20
2023-02-19T12:47:33.343Z,46.76
2023-02-19T12:49:59.674Z,46.87
2023-02-19T12:52:26.066Z,46.63
2023-02-19T12:54:54.796Z,46.89
2023-02-19T12:57:22.031Z,46.55
2023-02-19T12:59:48.476Z,44.60
2023-02-19T13:02:14.908Z,44.52
2023-02-19T13:04:41.329Z,44.11
2023-02-19T13:07:07.715Z,44.17
2023-02-19T13:09:34.104Z,44.49
2023-02-19T13:12:00.471Z,43.68
2023-02-19T13:14:26.868Z,44.24
2023-02-19T13:16:53.261Z,44.09
2023-02-19T13:19:19.671Z,43.89
2023-02-19T13:21:46.073Z,46.17
2023-02-19T13:24:12.413Z,46.01
2023-02-19T13:26:38.766Z,47.07
2023-02-19T13:29:05.160Z,45.78
2023-02-19T13:31:31.682Z,48.21
2023-02-19T13:33:58.123Z,47.32
2023-02-19T13:36:24.467Z,46.89
2023-02-19T13:38:50.810Z,46.93
2023-02-19T13:41:17.151Z,46.21
2023-02-19T13:43:43.489Z,45.88
2023-02-19T13:46:09.912Z,45.67
2023-02-19T13:48:36.314Z,45.17
2023-02-19T13:51:02.742Z,45.53
2023-02-19T13:53:29.090Z,45.54
2023-02-19T13:55:55.470Z,45.62
2023-02-19T13:58:21.849Z,46.83
2023-02-19T14:00:49.405Z,45.82
2023-02-19T14:03:15.851Z,47.00
2023-02-19T14:05:42.192Z,46.71
2023-02-19T14:08:08.530Z,47.82
2023-02-19T14:10:34.871Z,47.27
2023-02-19T14:13:01.277Z,46.75
2023-02-19T14:15:27.689Z,45.80
2023-02-19T14:17:54.130Z,44.54
2023-02-19T14:20:20.512Z,44.92
2023-02-19T14:22:46.913Z,44.03
2023-02-19T14:25:13.266Z,43.91
2023-02-19T14:27:39.595Z,43.75
2023-02-19T14:30:06.081Z,42.77
2023-02-19T14:32:32.563Z,43.12
2023-02-19T14:34:58.946Z,42.77
2023-02-19T14:37:25.292Z,42.81
2023-02-19T14:39:51.635Z,42.91
2023-02-19T14:42:17.972Z,43.31
2023-02-19T14:44:44.357Z,43.23
2023-02-19T14:47:10.707Z,43.55
2023-02-19T14:49:37.094Z,43.35
2023-02-19T14:52:03.440Z,43.62
2023-02-19T14:54:29.813Z,43.56
2023-02-19T14:56:56.190Z,42.97
2023-02-19T14:59:22.529Z,43.54
2023-02-19T15:01:48.964Z,43.68
2023-02-19T15:04:15.387Z,44.47
2023-02-19T15:06:41.793Z,44.90
2023-02-19T15:09:08.150Z,45.61
2023-02-19T15:11:34.482Z,45.56
2023-02-19T15:14:00.810Z,45.57
2023-02-19T15:16:27.184Z,45.67
2023-02-19T15:18:53.530Z,45.74
2023-02-19T15:21:19.910Z,45.54
2023-02-19T15:23:46.291Z,45.21
2023-02-19T15:26:12.684Z,45.31
2023-02-19T15:28:39.037Z,45.33
2023-02-19T15:31:05.441Z,45.38
2023-02-19T15:33:31.811Z,45.85
2023-02-19T15:35:58.182Z,44.57
2023-02-19T15:38:24.574Z,44.61
2023-02-19T15:40:50.919Z,44.69
2023-02-19T15:43:17.308Z,44.11
2023-02-19T15:45:43.646Z,44.23
2023-02-19T15:48:10.045Z,43.64
2023-02-19T15:50:36.392Z,44.80
2023-02-19T15:53:02.720Z,43.77
2023-02-19T15:55:29.113Z,44.76
2023-02-19T15:57:55.520Z,44.61
2023-02-19T16:00:21.975Z,44.83
2023-02-19T16:02:48.401Z,45.11
2023-02-19T16:05:14.817Z,44.28
2023-02-19T16:07:41.197Z,44.58
2023-02-19T16:10:07.584Z,44.17
2023-02-19T16:12:33.940Z,43.79
2023-02-19T16:15:00.318Z,43.44
2023-02-19T16:17:26.719Z,44.98
2023-02-19T16:19:53.072Z,44.30
2023-02-19T16:22:19.414Z,44.18
2023-02-19T16:24:45.805Z,44.05
2023-02-19T16:27:12.157Z,42.59
2023-02-19T16:29:38.553Z,42.78
2023-02-19T16:32:04.995Z,42.48
2023-02-19T16:34:31.436Z,42.51
2023-02-19T16:36:57.826Z,42.54
2023-02-19T16:39:24.168Z,42.99
2023-02-19T16:41:50.556Z,42.99
2023-02-19T16:44:16.942Z,42.77
2023-02-19T16:46:43.285Z,42.70
2023-02-19T16:49:09.661Z,43.44
2023-02-19T16:51:36.250Z,43.97
2023-02-19T16:54:02.653Z,44.39
2023-02-19T16:56:29.007Z,44.60
2023-02-19T16:58:55.394Z,46.17
2023-02-19T17:01:21.812Z,46.46
2023-02-19T17:03:48.260Z,46.38
2023-02-19T17:06:14.663Z,45.98
2023-02-19T17:08:41.008Z,45.64
2023-02-19T17:11:07.384Z,46.25
2023-02-19T17:13:33.746Z,46.01
2023-02-19T17:16:00.108Z,48.10
2023-02-19T17:18:26.464Z,47.87
2023-02-19T17:20:52.810Z,47.49
2023-02-19T17:23:19.138Z,47.39
2023-02-19T17:25:45.476Z,48.57
2023-02-19T17:28:11.845Z,47.61
2023-02-19T17:30:40.057Z,47.21
2023-02-19T17:33:06.815Z,47.77
2023-02-19T17:35:33.194Z,47.58
2023-02-19T17:37:59.533Z,48.44
2023-02-19T17:40:32.827Z,47.66
2023-02-19T17:42:59.736Z,48.61
2023-02-19T17:45:26.130Z,48.20
2023-02-19T17:47:52.526Z,48.12
2023-02-19T17:50:18.909Z,47.71
2023-02-19T17:52:45.262Z,48.17
2023-02-19T17:55:11.658Z,48.09
2023-02-19T17:57:38.045Z,48.58
2023-02-19T18:00:04.433Z,48.82
2023-02-19T18:02:30.788Z,48.78
2023-02-19T18:04:57.161Z,48.65
2023-02-19T18:07:23.570Z,49.45
2023-02-19T18:09:49.913Z,49.09
2023-02-19T18:12:16.291Z,49.73
2023-02-19T18:14:42.631Z,49.15
2023-02-19T18:17:08.971Z,49.81
2023-02-19T18:19:35.321Z,50.32
2023-02-19T18:22:01.655Z,51.28
2023-02-19T18:24:28.050Z,51.73
2023-02-19T18:26:54.478Z,51.86
2023-02-19T18:29:20.888Z,53.36
2023-02-19T18:31:47.345Z,53.04
2023-02-19T18:34:13.797Z,52.94
2023-02-19T18:36:40.138Z,53.93
2023-02-19T18:39:06.511Z,52.97
2023-02-19T18:41:32.855Z,53.44
2023-02-19T18:43:59.239Z,54.16
2023-02-19T18:46:25.709Z,53.82
2023-02-19T18:48:52.111Z,53.67
2023-02-19T18:51:18.475Z,53.71
2023-02-19T18:53:44.862Z,53.41
2023-02-19T18:56:11.262Z,53.67
2023-02-19T18:58:37.659Z,52.92
2023-02-19T19:01:04.122Z,53.12
2023-02-19T19:03:30.516Z,53.18
2023-02-19T19:05:56.842Z,52.77
2023-02-19T19:08:23.186Z,52.22
2023-02-19T19:10:49.556Z,51.32
2023-02-19T19:13:15.965Z,50.85
2023-02-19T19:15:42.361Z,49.28
2023-02-19T19:18:08.745Z,49.92
2023-02-19T19:20:35.130Z,49.30
2023-02-19T19:23:01.530Z,49.65
2023-02-19T19:25:27.974Z,49.35
2023-02-19T19:27:54.356Z,49.03
2023-02-19T19:30:20.822Z,49.57
2023-02-19T19:32:47.896Z,49.65
2023-02-19T19:35:14.262Z,49.78
2023-02-19T19:37:40.633Z,49.84
2023-02-19T19:40:07.019Z,49.51
2023-02-19T19:42:33.420Z,49.65
2023-02-19T19:44:59.840Z,49.76
2023-02-19T19:47:26.209Z,49.83
2023-02-19T19:49:52.576Z,49.70
2023-02-19T19:52:19.004Z,49.08
2023-02-19T19:54:45.466Z,49.96
2023-02-19T19:57:11.860Z,49.24
2023-02-19T19:59:38.217Z,48.78
2023-02-19T20:02:04.597Z,48.08
2023-02-19T20:04:30.983Z,48.83
2023-02-19T20:06:57.369Z,48.36
2023-02-19T20:09:23.789Z,49.08
2023-02-19T20:11:50.225Z,49.11
2023-02-19T20:14:16.589Z,49.02
2023-02-19T20:16:44.706Z,48.18
2023-02-19T20:19:11.392Z,47.66
2023-02-19T20:21:37.759Z,48.82
2023-02-19T20:24:04.146Z,47.75
2023-02-19T20:26:30.507Z,48.06
2023-02-19T20:28:56.889Z,48.26
2023-02-19T20:31:23.479Z,48.31
2023-02-19T20:33:49.863Z,48.78
2023-02-19T20:36:16.251Z,48.21
2023-02-19T20:38:42.643Z,48.12
2023-02-19T20:41:09.066Z,47.26
2023-02-19T20:43:35.500Z,47.42
2023-02-19T20:46:01.894Z,47.22
2023-02-19T20:48:28.247Z,47.89
2023-02-19T20:50:54.626Z,48.92
2023-02-19T20:53:21.024Z,49.88
2023-02-19T20:55:47.388Z,50.29
2023-02-19T20:58:13.775Z,49.93
2023-02-19T21:00:40.173Z,51.01
2023-02-19T21:03:06.620Z,50.63
2023-02-19T21:05:33.008Z,49.98
2023-02-19T21:07:59.393Z,49.71
2023-02-19T21:10:25.752Z,49.43
2023-02-19T21:12:52.088Z,50.21
2023-02-19T21:15:18.422Z,50.62
2023-02-19T21:17:44.757Z,50.47
2023-02-19T21:20:11.136Z,50.52
2023-02-19T21:22:37.528Z,50.07
2023-02-19T21:25:03.879Z,48.17
2023-02-19T21:27:30.235Z,48.41
2023-02-19T21:29:56.606Z,48.12
2023-02-19T21:32:23.060Z,47.40
2023-02-19T21:34:49.430Z,46.83
2023-02-19T21:37:15.797Z,48.67
2023-02-19T21:39:42.187Z,49.11
2023-02-19T21:42:08.521Z,49.97
2023-02-19T21:44:34.927Z,50.08
2023-02-19T21:47:01.288Z,51.41
2023-02-19T21:49:27.632Z,50.77
2023-02-19T21:51:53.979Z,50.10
2023-02-19T21:54:20.411Z,49.88
2023-02-19T21:56:46.825Z,50.26
2023-02-19T21:59:13.170Z,49.39
2023-02-19T22:01:39.573Z,49.77
2023-02-19T22:04:05.991Z,49.63
2023-02-19T22:06:32.356Z,50.83
2023-02-19T22:08:58.744Z,49.98
2023-02-19T22:11:25.136Z,51.53
2023-02-19T22:13:51.549Z,51.94
2023-02-19T22:16:17.970Z,50.68
2023-02-19T22:18:44.395Z,50.87
2023-02-19T22:21:10.724Z,52.13
2023-02-19T22:23:37.059Z,51.96
2023-02-19T22:26:03.454Z,51.93
2023-02-19T22:28:29.819Z,50.68
2023-02-19T22:30:56.483Z,50.85
2023-02-19T22:33:22.868Z,51.75
2023-02-19T22:35:49.204Z,52.77
2023-02-19T22:38:15.564Z,52.01
2023-02-19T22:40:41.935Z,51.80
2023-02-19T22:43:08.328Z,51.40
2023-02-19T22:45:34.687Z,51.21
2023-02-19T22:48:01.070Z,49.82
2023-02-19T22:50:27.410Z,49.54
2023-02-19T22:52:53.783Z,48.54
2023-02-19T22:55:20.170Z,48.62
2023-02-19T22:57:46.522Z,49.33
2023-02-19T23:00:12.854Z,48.57
2023-02-19T23:02:39.193Z,48.81
2023-02-19T23:05:05.582Z,49.48
2023-02-19T23:07:31.970Z,51.13
2023-02-19T23:09:58.363Z,51.18
2023-02-19T23:12:24.706Z,50.09
2023-02-19T23:14:51.039Z,49.88
2023-02-19T23:17:17.380Z,49.53
2023-02-19T23:19:43.741Z,49.59
2023-02-19T23:22:10.366Z,49.13
2023-02-19T23:24:36.703Z,48.94
2023-02-19T23:27:03.080Z,48.83
2023-02-19T23:29:29.426Z,49.35
2023-02-19T23:31:55.862Z,48.53
2023-02-19T23:34:22.291Z,49.78
2023-02-19T23:36:48.630Z,51.31
2023-02-19T23:39:14.964Z,50.47
2023-02-19T23:41:41.294Z,50.90
2023-02-19T23:44:07.661Z,51.99
2023-02-19T23:46:34.006Z,51.53
2023-02-19T23:49:00.348Z,50.60
2023-02-19T23:51:26.734Z,48.77
2023-02-19T23:53:53.135Z,49.18
2023-02-19T23:56:19.537Z,49.19
2023-02-19T23:58:45.907Z,48.34
